EZY42C EGPD-EGGD
Flight info
| Callsign | EZY42C |
|---|---|
| Flight time | 1h 9m |
| Altitude | 24000 |
| Route | NAXIL P600 PTH/N0447F280 DCT ZOFAT/N0459F290 DCT ADZOP DCT EGTOC DCT NOKIN N862 KARNO/N0445F280 DCT ALHUP DCT LUCSA/N0411F230 N862 WEVBE |
| Aircraft | A320/M-SDE3FGHIRWY/LB1 |
Departure
| Time | 2026-05-09 08:16 |
|---|---|
| Airport | Aberdeen International Airport (EGPD) |
Arrival
| Time | 2026-05-09 09:25 |
|---|---|
| Airport | Bristol Airport (EGGD) |
| Time | Latitude | Longitude | Altitude | Speed | Heading |
|---|---|---|---|---|---|
| 2026-05-09 07:49 | 57.20100 | -2.20274 | 226 ft | 0 kts | 249° |
| 2026-05-09 08:08 | 57.20100 | -2.20273 | 223 ft | 2 kts | 249° |
| 2026-05-09 08:08 | 57.20107 | -2.20241 | 223 ft | 3 kts | 249° |
| 2026-05-09 08:09 | 57.20113 | -2.20209 | 225 ft | 2 kts | 244° |
| 2026-05-09 08:09 | 57.20125 | -2.20187 | 223 ft | 2 kts | 172° |
| 2026-05-09 08:09 | 57.20126 | -2.20187 | 226 ft | 0 kts | 167° |
| 2026-05-09 08:12 | 57.20111 | -2.20177 | 224 ft | 4 kts | 159° |
| 2026-05-09 08:12 | 57.20076 | -2.20146 | 224 ft | 7 kts | 153° |
| 2026-05-09 08:12 | 57.20029 | -2.20104 | 223 ft | 8 kts | 155° |
| 2026-05-09 08:13 | 57.19979 | -2.20053 | 223 ft | 9 kts | 144° |
| 2026-05-09 08:13 | 57.19925 | -2.19961 | 222 ft | 12 kts | 136° |
| 2026-05-09 08:13 | 57.19846 | -2.19840 | 220 ft | 16 kts | 153° |
| 2026-05-09 08:13 | 57.19746 | -2.19770 | 223 ft | 14 kts | 157° |
| 2026-05-09 08:14 | 57.19656 | -2.19701 | 224 ft | 14 kts | 155° |
| 2026-05-09 08:14 | 57.19577 | -2.19598 | 224 ft | 14 kts | 138° |
| 2026-05-09 08:14 | 57.19499 | -2.19473 | 221 ft | 16 kts | 140° |
| 2026-05-09 08:14 | 57.19428 | -2.19324 | 222 ft | 15 kts | 99° |
| 2026-05-09 08:15 | 57.19492 | -2.19255 | 224 ft | 13 kts | 330° |
| 2026-05-09 08:15 | 57.19532 | -2.19292 | 222 ft | 0 kts | 340° |
| 2026-05-09 08:15 | 57.19714 | -2.19431 | 224 ft | 57 kts | 334° |
| 2026-05-09 08:15 | 57.20253 | -2.19830 | 217 ft | 111 kts | 337° |
| 2026-05-09 08:16 | 57.21084 | -2.20451 | 392 ft | 136 kts | 338° |
| 2026-05-09 08:16 | 57.21968 | -2.21138 | 963 ft | 143 kts | 323° |
| 2026-05-09 08:16 | 57.22355 | -2.22739 | 1664 ft | 147 kts | 269° |
| 2026-05-09 08:16 | 57.21996 | -2.24639 | 2080 ft | 177 kts | 238° |
| 2026-05-09 08:17 | 57.21035 | -2.26419 | 2196 ft | 215 kts | 226° |
| 2026-05-09 08:17 | 57.19856 | -2.28484 | 2416 ft | 253 kts | 227° |
| 2026-05-09 08:17 | 57.18556 | -2.30796 | 3322 ft | 263 kts | 227° |
| 2026-05-09 08:17 | 57.17235 | -2.33160 | 4503 ft | 265 kts | 226° |
| 2026-05-09 08:18 | 57.15916 | -2.35538 | 5722 ft | 264 kts | 228° |
| 2026-05-09 08:18 | 57.14620 | -2.37889 | 6953 ft | 260 kts | 227° |
| 2026-05-09 08:18 | 57.13334 | -2.40232 | 8045 ft | 260 kts | 226° |
| 2026-05-09 08:18 | 57.12043 | -2.42590 | 9070 ft | 263 kts | 226° |
| 2026-05-09 08:19 | 57.10739 | -2.44985 | 10045 ft | 266 kts | 226° |
| 2026-05-09 08:19 | 57.09404 | -2.47435 | 10700 ft | 281 kts | 226° |
| 2026-05-09 08:19 | 57.07941 | -2.50114 | 10830 ft | 312 kts | 225° |
| 2026-05-09 08:19 | 57.06335 | -2.53049 | 10996 ft | 338 kts | 225° |
| 2026-05-09 08:20 | 57.04652 | -2.56115 | 11535 ft | 350 kts | 225° |
| 2026-05-09 08:20 | 57.02912 | -2.59279 | 12351 ft | 353 kts | 225° |
| 2026-05-09 08:20 | 57.01162 | -2.62449 | 13213 ft | 355 kts | 225° |
| 2026-05-09 08:20 | 56.99396 | -2.65640 | 14052 ft | 357 kts | 225° |
| 2026-05-09 08:21 | 56.97623 | -2.68844 | 14777 ft | 360 kts | 225° |
| 2026-05-09 08:21 | 56.95811 | -2.72029 | 15501 ft | 361 kts | 221° |
| 2026-05-09 08:21 | 56.94466 | -2.73911 | 16109 ft | 360 kts | 216° |
| 2026-05-09 08:21 | 56.92423 | -2.76499 | 16766 ft | 365 kts | 216° |
| 2026-05-09 08:22 | 56.90325 | -2.79165 | 17382 ft | 369 kts | 216° |
| 2026-05-09 08:22 | 56.88208 | -2.81851 | 18052 ft | 371 kts | 216° |
| 2026-05-09 08:22 | 56.86082 | -2.84551 | 18710 ft | 374 kts | 217° |
| 2026-05-09 08:22 | 56.83939 | -2.87276 | 19299 ft | 376 kts | 217° |
| 2026-05-09 08:23 | 56.81784 | -2.90004 | 19871 ft | 378 kts | 217° |
| 2026-05-09 08:23 | 56.79610 | -2.92748 | 20422 ft | 381 kts | 217° |
| 2026-05-09 08:23 | 56.77416 | -2.95513 | 20975 ft | 384 kts | 217° |
| 2026-05-09 08:23 | 56.75214 | -2.98288 | 21562 ft | 386 kts | 217° |
| 2026-05-09 08:24 | 56.72997 | -3.01076 | 22157 ft | 388 kts | 217° |
| 2026-05-09 08:24 | 56.70766 | -3.03872 | 22719 ft | 390 kts | 217° |
| 2026-05-09 08:24 | 56.68528 | -3.06672 | 23233 ft | 392 kts | 217° |
| 2026-05-09 08:24 | 56.66276 | -3.09487 | 23741 ft | 394 kts | 217° |
| 2026-05-09 08:25 | 56.64008 | -3.12322 | 24167 ft | 396 kts | 217° |
| 2026-05-09 08:25 | 56.61737 | -3.15158 | 24573 ft | 397 kts | 217° |
| 2026-05-09 08:25 | 56.59480 | -3.17974 | 24973 ft | 398 kts | 217° |
| 2026-05-09 08:25 | 56.57188 | -3.20829 | 25367 ft | 400 kts | 217° |
| 2026-05-09 08:26 | 56.54892 | -3.23684 | 25748 ft | 401 kts | 217° |
| 2026-05-09 08:26 | 56.52588 | -3.26543 | 26065 ft | 402 kts | 217° |
| 2026-05-09 08:26 | 56.50270 | -3.29410 | 26352 ft | 405 kts | 217° |
| 2026-05-09 08:26 | 56.47938 | -3.32294 | 26633 ft | 406 kts | 217° |
| 2026-05-09 08:27 | 56.45600 | -3.35182 | 26909 ft | 407 kts | 217° |
| 2026-05-09 08:27 | 56.43143 | -3.37723 | 27358 ft | 406 kts | 208° |
| 2026-05-09 08:27 | 56.40572 | -3.39789 | 27840 ft | 403 kts | 208° |
| 2026-05-09 08:27 | 56.38010 | -3.41840 | 28058 ft | 403 kts | 208° |
| 2026-05-09 08:28 | 56.35446 | -3.43903 | 28288 ft | 404 kts | 208° |
| 2026-05-09 08:28 | 56.32885 | -3.45965 | 28595 ft | 403 kts | 208° |
| 2026-05-09 08:28 | 56.30334 | -3.48012 | 28927 ft | 401 kts | 208° |
| 2026-05-09 08:28 | 56.27786 | -3.50041 | 29258 ft | 399 kts | 208° |
| 2026-05-09 08:29 | 56.25245 | -3.52056 | 29553 ft | 398 kts | 207° |
| 2026-05-09 08:29 | 56.22712 | -3.54064 | 29854 ft | 398 kts | 207° |
| 2026-05-09 08:29 | 56.20184 | -3.56074 | 30196 ft | 397 kts | 207° |
| 2026-05-09 08:29 | 56.17657 | -3.58087 | 30554 ft | 396 kts | 207° |
| 2026-05-09 08:30 | 56.15145 | -3.60082 | 30918 ft | 394 kts | 207° |
| 2026-05-09 08:30 | 56.12635 | -3.62065 | 31270 ft | 393 kts | 207° |
| 2026-05-09 08:30 | 56.10136 | -3.64035 | 31622 ft | 392 kts | 207° |
| 2026-05-09 08:30 | 56.07644 | -3.66002 | 31975 ft | 391 kts | 207° |
| 2026-05-09 08:31 | 56.05160 | -3.67961 | 32322 ft | 390 kts | 207° |
| 2026-05-09 08:31 | 56.02680 | -3.69915 | 32677 ft | 388 kts | 208° |
| 2026-05-09 08:31 | 56.00210 | -3.71856 | 33022 ft | 387 kts | 208° |
| 2026-05-09 08:31 | 55.97745 | -3.73786 | 33369 ft | 386 kts | 208° |
| 2026-05-09 08:32 | 55.95285 | -3.75707 | 33686 ft | 386 kts | 208° |
| 2026-05-09 08:32 | 55.92860 | -3.77598 | 34022 ft | 385 kts | 208° |
| 2026-05-09 08:32 | 55.87962 | -3.81415 | 34596 ft | 384 kts | 208° |
| 2026-05-09 08:33 | 55.85509 | -3.83326 | 34802 ft | 386 kts | 207° |
| 2026-05-09 08:33 | 55.83039 | -3.85246 | 34988 ft | 388 kts | 207° |
| 2026-05-09 08:33 | 55.80558 | -3.87175 | 35174 ft | 390 kts | 207° |
| 2026-05-09 08:34 | 55.75557 | -3.91075 | 35282 ft | 393 kts | 207° |
| 2026-05-09 08:34 | 55.70547 | -3.94953 | 35270 ft | 393 kts | 207° |
| 2026-05-09 08:35 | 55.65514 | -3.98823 | 35272 ft | 394 kts | 207° |
| 2026-05-09 08:35 | 55.60233 | -4.01707 | 35267 ft | 404 kts | 191° |
| 2026-05-09 08:36 | 55.54544 | -4.00826 | 35269 ft | 424 kts | 170° |
| 2026-05-09 08:36 | 55.48952 | -3.97614 | 35259 ft | 425 kts | 169° |
| 2026-05-09 08:37 | 55.43340 | -3.94404 | 35222 ft | 423 kts | 169° |
| 2026-05-09 08:37 | 55.37743 | -3.91239 | 35222 ft | 423 kts | 169° |
| 2026-05-09 08:38 | 55.32130 | -3.88071 | 35234 ft | 423 kts | 169° |
| 2026-05-09 08:38 | 55.26531 | -3.84908 | 35220 ft | 423 kts | 169° |
| 2026-05-09 08:39 | 55.20931 | -3.81748 | 35227 ft | 423 kts | 169° |
| 2026-05-09 08:39 | 55.15328 | -3.78605 | 35215 ft | 423 kts | 168° |
| 2026-05-09 08:40 | 55.09720 | -3.75471 | 35219 ft | 422 kts | 168° |
| 2026-05-09 08:40 | 55.04152 | -3.72365 | 35220 ft | 422 kts | 168° |
| 2026-05-09 08:41 | 54.98549 | -3.69252 | 35222 ft | 422 kts | 168° |
| 2026-05-09 08:41 | 54.92951 | -3.66152 | 35205 ft | 422 kts | 168° |
| 2026-05-09 08:42 | 54.87364 | -3.63048 | 35206 ft | 421 kts | 168° |
| 2026-05-09 08:42 | 54.81775 | -3.59965 | 35209 ft | 422 kts | 168° |
| 2026-05-09 08:43 | 54.76171 | -3.56890 | 35215 ft | 421 kts | 168° |
| 2026-05-09 08:43 | 54.70620 | -3.53852 | 35214 ft | 421 kts | 168° |
| 2026-05-09 08:44 | 54.65036 | -3.50805 | 35199 ft | 420 kts | 168° |
| 2026-05-09 08:44 | 54.59442 | -3.47764 | 35195 ft | 420 kts | 168° |
| 2026-05-09 08:45 | 54.53860 | -3.44731 | 35199 ft | 420 kts | 168° |
| 2026-05-09 08:45 | 54.48289 | -3.41706 | 35194 ft | 420 kts | 168° |
| 2026-05-09 08:46 | 54.42708 | -3.38682 | 35186 ft | 420 kts | 167° |
| 2026-05-09 08:46 | 54.37180 | -3.35703 | 35182 ft | 419 kts | 167° |
| 2026-05-09 08:47 | 54.31613 | -3.32723 | 35195 ft | 419 kts | 167° |
| 2026-05-09 08:47 | 54.26039 | -3.29749 | 35191 ft | 418 kts | 167° |
| 2026-05-09 08:48 | 54.20473 | -3.26766 | 35191 ft | 419 kts | 167° |
| 2026-05-09 08:48 | 54.14814 | -3.25017 | 35165 ft | 410 kts | 178° |
| 2026-05-09 08:49 | 54.09114 | -3.24126 | 35168 ft | 413 kts | 178° |
| 2026-05-09 08:49 | 54.03361 | -3.23237 | 35212 ft | 415 kts | 178° |
| 2026-05-09 08:50 | 53.97716 | -3.21853 | 35194 ft | 413 kts | 171° |
| 2026-05-09 08:50 | 53.92089 | -3.19719 | 35174 ft | 416 kts | 171° |
| 2026-05-09 08:51 | 53.86445 | -3.17564 | 35199 ft | 415 kts | 171° |
| 2026-05-09 08:51 | 53.80831 | -3.15427 | 35191 ft | 413 kts | 171° |
| 2026-05-09 08:52 | 53.75206 | -3.13300 | 35186 ft | 414 kts | 171° |
| 2026-05-09 08:52 | 53.69568 | -3.11185 | 35166 ft | 414 kts | 170° |
| 2026-05-09 08:53 | 53.63940 | -3.09079 | 35173 ft | 414 kts | 170° |
| 2026-05-09 08:53 | 53.58309 | -3.06974 | 35178 ft | 414 kts | 170° |
| 2026-05-09 08:54 | 53.52681 | -3.04872 | 35182 ft | 414 kts | 170° |
| 2026-05-09 08:54 | 53.47092 | -3.02791 | 35183 ft | 414 kts | 170° |
| 2026-05-09 08:55 | 53.41463 | -3.00698 | 35185 ft | 414 kts | 170° |
| 2026-05-09 08:55 | 53.35842 | -2.98618 | 35185 ft | 414 kts | 170° |
| 2026-05-09 08:56 | 53.30216 | -2.96542 | 35186 ft | 414 kts | 171° |
| 2026-05-09 08:56 | 53.24598 | -2.94482 | 35181 ft | 414 kts | 171° |
| 2026-05-09 08:57 | 53.18963 | -2.92430 | 35143 ft | 414 kts | 170° |
| 2026-05-09 08:57 | 53.16161 | -2.91401 | 34665 ft | 411 kts | 170° |
| 2026-05-09 08:57 | 53.13375 | -2.90372 | 33855 ft | 408 kts | 170° |
| 2026-05-09 08:57 | 53.10625 | -2.89356 | 33101 ft | 404 kts | 170° |
| 2026-05-09 08:58 | 53.07836 | -2.88605 | 32529 ft | 411 kts | 177° |
| 2026-05-09 08:58 | 53.04956 | -2.88506 | 31954 ft | 413 kts | 184° |
| 2026-05-09 08:58 | 53.02115 | -2.88757 | 31384 ft | 407 kts | 184° |
| 2026-05-09 08:58 | 52.99301 | -2.88999 | 30849 ft | 411 kts | 184° |
| 2026-05-09 08:59 | 52.96436 | -2.89239 | 30300 ft | 413 kts | 184° |
| 2026-05-09 08:59 | 52.93564 | -2.89479 | 29679 ft | 414 kts | 184° |
| 2026-05-09 08:59 | 52.90675 | -2.89722 | 29059 ft | 418 kts | 184° |
| 2026-05-09 08:59 | 52.87759 | -2.90214 | 28451 ft | 426 kts | 188° |
| 2026-05-09 09:00 | 52.84829 | -2.90905 | 27846 ft | 425 kts | 189° |
| 2026-05-09 09:00 | 52.81912 | -2.91596 | 27252 ft | 421 kts | 189° |
| 2026-05-09 09:00 | 52.79027 | -2.92282 | 26701 ft | 418 kts | 189° |
| 2026-05-09 09:00 | 52.76141 | -2.92963 | 26127 ft | 417 kts | 189° |
| 2026-05-09 09:01 | 52.73269 | -2.93637 | 25593 ft | 416 kts | 189° |
| 2026-05-09 09:01 | 52.70392 | -2.94189 | 25052 ft | 417 kts | 184° |
| 2026-05-09 09:01 | 52.67494 | -2.94434 | 24522 ft | 415 kts | 184° |
| 2026-05-09 09:01 | 52.64615 | -2.94668 | 24005 ft | 414 kts | 184° |
| 2026-05-09 09:02 | 52.61740 | -2.94898 | 23444 ft | 413 kts | 184° |
| 2026-05-09 09:02 | 52.58874 | -2.95132 | 22838 ft | 411 kts | 184° |
| 2026-05-09 09:02 | 52.56032 | -2.95369 | 22245 ft | 408 kts | 185° |
| 2026-05-09 09:02 | 52.53205 | -2.95603 | 21659 ft | 405 kts | 185° |
| 2026-05-09 09:03 | 52.50396 | -2.95830 | 21088 ft | 403 kts | 185° |
| 2026-05-09 09:03 | 52.47606 | -2.96058 | 20521 ft | 400 kts | 184° |
| 2026-05-09 09:03 | 52.44837 | -2.96286 | 19968 ft | 397 kts | 184° |
| 2026-05-09 09:03 | 52.42089 | -2.96513 | 19430 ft | 395 kts | 184° |
| 2026-05-09 09:04 | 52.39349 | -2.96742 | 18897 ft | 393 kts | 184° |
| 2026-05-09 09:04 | 52.36625 | -2.96967 | 18368 ft | 391 kts | 184° |
| 2026-05-09 09:04 | 52.33941 | -2.97186 | 17768 ft | 389 kts | 185° |
| 2026-05-09 09:04 | 52.31241 | -2.97405 | 17183 ft | 388 kts | 185° |
| 2026-05-09 09:05 | 52.28554 | -2.97624 | 16610 ft | 385 kts | 185° |
| 2026-05-09 09:05 | 52.25890 | -2.97842 | 16204 ft | 382 kts | 185° |
| 2026-05-09 09:05 | 52.23248 | -2.98058 | 15960 ft | 373 kts | 184° |
| 2026-05-09 09:05 | 52.20709 | -2.98262 | 15731 ft | 357 kts | 184° |
| 2026-05-09 09:06 | 52.19084 | -2.98392 | 15583 ft | 348 kts | 184° |
| 2026-05-09 09:06 | 52.15929 | -2.98650 | 15285 ft | 331 kts | 185° |
| 2026-05-09 09:06 | 52.13662 | -2.98840 | 15054 ft | 321 kts | 185° |
| 2026-05-09 09:06 | 52.11464 | -2.99022 | 14837 ft | 313 kts | 185° |
| 2026-05-09 09:07 | 52.09309 | -2.99197 | 14617 ft | 308 kts | 185° |
| 2026-05-09 09:07 | 52.07195 | -2.99366 | 14404 ft | 308 kts | 185° |
| 2026-05-09 09:07 | 52.05752 | -2.99482 | 14260 ft | 307 kts | 185° |
| 2026-05-09 09:07 | 52.02926 | -2.99707 | 13977 ft | 306 kts | 185° |
| 2026-05-09 09:08 | 52.01491 | -2.99821 | 13820 ft | 306 kts | 185° |
| 2026-05-09 09:08 | 51.98689 | -3.00042 | 13498 ft | 303 kts | 185° |
| 2026-05-09 09:08 | 51.96581 | -3.00093 | 13262 ft | 303 kts | 178° |
| 2026-05-09 09:08 | 51.94485 | -2.99665 | 13022 ft | 304 kts | 170° |
| 2026-05-09 09:09 | 51.92452 | -2.98745 | 12788 ft | 304 kts | 161° |
| 2026-05-09 09:09 | 51.91111 | -2.97933 | 12631 ft | 303 kts | 161° |
| 2026-05-09 09:09 | 51.89142 | -2.96747 | 12402 ft | 301 kts | 161° |
| 2026-05-09 09:09 | 51.87181 | -2.95575 | 12176 ft | 300 kts | 161° |
| 2026-05-09 09:10 | 51.85253 | -2.94427 | 11943 ft | 299 kts | 161° |
| 2026-05-09 09:10 | 51.83307 | -2.93267 | 11720 ft | 298 kts | 161° |
| 2026-05-09 09:10 | 51.81362 | -2.92107 | 11495 ft | 297 kts | 161° |
| 2026-05-09 09:10 | 51.79425 | -2.90952 | 11269 ft | 297 kts | 161° |
| 2026-05-09 09:11 | 51.77499 | -2.89805 | 11048 ft | 294 kts | 160° |
| 2026-05-09 09:11 | 51.75587 | -2.88666 | 10818 ft | 293 kts | 161° |
| 2026-05-09 09:11 | 51.73676 | -2.87528 | 10601 ft | 292 kts | 160° |
| 2026-05-09 09:11 | 51.71775 | -2.86395 | 10381 ft | 291 kts | 161° |
| 2026-05-09 09:12 | 51.69840 | -2.85450 | 10162 ft | 290 kts | 166° |
| 2026-05-09 09:12 | 51.67901 | -2.84606 | 9936 ft | 288 kts | 166° |
| 2026-05-09 09:12 | 51.65970 | -2.83765 | 9691 ft | 286 kts | 166° |
| 2026-05-09 09:12 | 51.64050 | -2.82932 | 9443 ft | 285 kts | 165° |
| 2026-05-09 09:13 | 51.62139 | -2.82103 | 9200 ft | 284 kts | 165° |
| 2026-05-09 09:13 | 51.60238 | -2.81282 | 8961 ft | 283 kts | 166° |
| 2026-05-09 09:13 | 51.58340 | -2.80461 | 8679 ft | 281 kts | 165° |
| 2026-05-09 09:13 | 51.56457 | -2.79642 | 8444 ft | 280 kts | 165° |
| 2026-05-09 09:14 | 51.54574 | -2.78825 | 8215 ft | 279 kts | 165° |
| 2026-05-09 09:14 | 51.52702 | -2.78017 | 7986 ft | 279 kts | 165° |
| 2026-05-09 09:14 | 51.50850 | -2.77217 | 7841 ft | 271 kts | 165° |
| 2026-05-09 09:14 | 51.49057 | -2.76445 | 7710 ft | 262 kts | 164° |
| 2026-05-09 09:15 | 51.47314 | -2.75746 | 7591 ft | 254 kts | 172° |
| 2026-05-09 09:15 | 51.45606 | -2.76031 | 7484 ft | 246 kts | 202° |
| 2026-05-09 09:15 | 51.44207 | -2.77536 | 7300 ft | 243 kts | 221° |
| 2026-05-09 09:15 | 51.43176 | -2.79712 | 6968 ft | 249 kts | 243° |
| 2026-05-09 09:16 | 51.42478 | -2.82233 | 6789 ft | 246 kts | 251° |
| 2026-05-09 09:16 | 51.41991 | -2.87643 | 6336 ft | 245 kts | 265° |
| 2026-05-09 09:16 | 51.41856 | -2.90322 | 6126 ft | 244 kts | 265° |
| 2026-05-09 09:17 | 51.41722 | -2.93034 | 5852 ft | 245 kts | 265° |
| 2026-05-09 09:17 | 51.41592 | -2.95753 | 5631 ft | 244 kts | 265° |
| 2026-05-09 09:17 | 51.41467 | -2.98474 | 5363 ft | 246 kts | 265° |
| 2026-05-09 09:17 | 51.41344 | -3.01197 | 5194 ft | 245 kts | 265° |
| 2026-05-09 09:18 | 51.41225 | -3.03927 | 4942 ft | 245 kts | 265° |
| 2026-05-09 09:18 | 51.41107 | -3.06638 | 4745 ft | 243 kts | 265° |
| 2026-05-09 09:18 | 51.40849 | -3.09305 | 4471 ft | 243 kts | 245° |
| 2026-05-09 09:18 | 51.39863 | -3.11427 | 4262 ft | 236 kts | 213° |
| 2026-05-09 09:19 | 51.38380 | -3.12335 | 4131 ft | 225 kts | 179° |
| 2026-05-09 09:19 | 51.36888 | -3.11886 | 3995 ft | 216 kts | 151° |
| 2026-05-09 09:19 | 51.35750 | -3.10452 | 3856 ft | 205 kts | 124° |
| 2026-05-09 09:19 | 51.35164 | -3.08453 | 3725 ft | 196 kts | 100° |
| 2026-05-09 09:20 | 51.35182 | -3.06317 | 3595 ft | 191 kts | 70° |
| 2026-05-09 09:20 | 51.35886 | -3.04565 | 3457 ft | 187 kts | 56° |
| 2026-05-09 09:20 | 51.36577 | -3.02841 | 3326 ft | 181 kts | 68° |
| 2026-05-09 09:20 | 51.36949 | -3.00954 | 3194 ft | 176 kts | 81° |
| 2026-05-09 09:21 | 51.37125 | -2.99040 | 3073 ft | 169 kts | 85° |
| 2026-05-09 09:21 | 51.37231 | -2.97227 | 2935 ft | 163 kts | 86° |
| 2026-05-09 09:21 | 51.37316 | -2.95429 | 2795 ft | 158 kts | 86° |
| 2026-05-09 09:21 | 51.37390 | -2.93727 | 2591 ft | 153 kts | 86° |
| 2026-05-09 09:22 | 51.37462 | -2.92004 | 2511 ft | 156 kts | 87° |
| 2026-05-09 09:22 | 51.37533 | -2.90285 | 2502 ft | 155 kts | 87° |
| 2026-05-09 09:22 | 51.37603 | -2.88558 | 2432 ft | 155 kts | 87° |
| 2026-05-09 09:22 | 51.37673 | -2.86839 | 2271 ft | 154 kts | 88° |
| 2026-05-09 09:23 | 51.37741 | -2.85169 | 2104 ft | 147 kts | 86° |
| 2026-05-09 09:23 | 51.37804 | -2.83617 | 1891 ft | 132 kts | 88° |
| 2026-05-09 09:23 | 51.37862 | -2.82153 | 1739 ft | 131 kts | 86° |
| 2026-05-09 09:23 | 51.37920 | -2.80702 | 1550 ft | 129 kts | 87° |
| 2026-05-09 09:24 | 51.37977 | -2.79237 | 1375 ft | 132 kts | 86° |
| 2026-05-09 09:24 | 51.38035 | -2.77777 | 1192 ft | 130 kts | 85° |
| 2026-05-09 09:24 | 51.38093 | -2.76321 | 1028 ft | 130 kts | 86° |
| 2026-05-09 09:24 | 51.38152 | -2.74863 | 835 ft | 133 kts | 84° |
| 2026-05-09 09:25 | 51.38190 | -2.73398 | 647 ft | 129 kts | 87° |
| 2026-05-09 09:25 | 51.38251 | -2.72193 | 635 ft | 80 kts | 85° |
| 2026-05-09 09:25 | 51.38283 | -2.71460 | 624 ft | 53 kts | 85° |
| 2026-05-09 09:25 | 51.38305 | -2.70995 | 623 ft | 31 kts | 87° |
| 2026-05-09 09:26 | 51.38326 | -2.70785 | 619 ft | 19 kts | 50° |
| 2026-05-09 09:26 | 51.38424 | -2.70714 | 616 ft | 9 kts | 16° |
| 2026-05-09 09:26 | 51.38467 | -2.70754 | 626 ft | 8 kts | 286° |
| 2026-05-09 09:26 | 51.38468 | -2.70840 | 620 ft | 8 kts | 268° |
| 2026-05-09 09:27 | 51.38465 | -2.70921 | 616 ft | 7 kts | 266° |
| 2026-05-09 09:27 | 51.38474 | -2.70992 | 626 ft | 6 kts | 307° |
| 2026-05-09 09:27 | 51.38516 | -2.71009 | 616 ft | 7 kts | 355° |
| 2026-05-09 09:27 | 51.38542 | -2.71011 | 619 ft | 1 kts | 356° |
| 2026-05-09 09:28 | 51.38551 | -2.71012 | 622 ft | 0 kts | 357° |